This is the latest recevied weather packets stored in our database for station/object W6TKD-13. If no packets are shown the sender has not sent any weather packets the latest 10 day(s).
| Time | Temp. | Humidity | Pressure | Rain* | Wind** | Luminosity | Snow |
|---|---|---|---|---|---|---|---|
| 1777593124 | 33.33° C | 33% | 1012.5 hPa | 0 mm | - | - | - |
| 1777592458 | 34.44° C | 33% | 1012.5 hPa | 0 mm | - | - | - |
| 1777591790 | 35° C | 33% | 1012.5 hPa | 0 mm | - | - | - |
| 1777590455 | 35° C | 33% | 1012.6 hPa | 0 mm | - | - | - |
| 1777589789 | 35° C | 33% | 1012.6 hPa | 0 mm | - | - | - |
| 1777589121 | 35° C | 33% | 1012.7 hPa | 0 mm | - | - | - |
| 1777588455 | 35° C | 33% | 1012.9 hPa | 0 mm | - | - | - |
| 1777587789 | 35.56° C | 33% | 1012.9 hPa | 0 mm | - | - | - |
| 1777587121 | 36.11° C | 33% | 1013 hPa | 0 mm | - | - | - |
| 1777586483 | 36.11° C | 33% | 1013.1 hPa | 0 mm | - | - | - |
| 1777585790 | 35.56° C | 33% | 1013 hPa | 0 mm | - | - | - |
| 1777585119 | 35.56° C | 33% | 1013.1 hPa | 0 mm | - | - | - |
| 1777584453 | 35.56° C | 32% | 1013.2 hPa | 0 mm | - | - | - |
| 1777583786 | 35.56° C | 32% | 1013.2 hPa | 0 mm | - | - | - |
| 1777583119 | 35.56° C | 33% | 1013.2 hPa | 0 mm | - | - | - |
| 1777582452 | 35° C | 33% | 1013.2 hPa | 0 mm | - | - | - |
| 1777581118 | 33.33° C | 34% | 1013.2 hPa | 0 mm | - | - | - |
| 1777580451 | 32.22° C | 36% | 1013.4 hPa | 0 mm | - | - | - |
| 1777579784 | 30.56° C | 37% | 1013.5 hPa | 0 mm | - | - | - |
| 1777579117 | 28.33° C | 40% | 1013.5 hPa | 0 mm | - | - | - |
| 1777577783 | 25° C | 41% | 1013.9 hPa | 0 mm | - | - | - |
| 1777577116 | 25.56° C | 41% | 1013.9 hPa | 0 mm | - | - | - |
| 1777576449 | 26.11° C | 40% | 1013.9 hPa | 0 mm | - | - | - |
| 1777575782 | 26.67° C | 38% | 1014.1 hPa | 0 mm | - | - | - |
| 1777575115 | 28.33° C | 37% | 1014.2 hPa | 0 mm | - | - | - |
* Rain since midnight (hover to see other rain measurements)
** Current wind speed in m/s (hover to see current wind gust speed)